sensor_id;sensor_type;location;lat;lon;timestamp;temperature;humidity
32600;DHT22;19277;51.778;7.912;2023-02-23T00:02:10;21.50;81.90
32600;DHT22;19277;51.778;7.912;2023-02-23T00:04:37;21.50;81.90
32600;DHT22;19277;51.778;7.912;2023-02-23T00:07:03;21.50;81.90
32600;DHT22;19277;51.778;7.912;2023-02-23T00:09:30;21.50;81.90
32600;DHT22;19277;51.778;7.912;2023-02-23T00:12:05;21.50;81.90
32600;DHT22;19277;51.778;7.912;2023-02-23T00:14:35;21.50;82.00
32600;DHT22;19277;51.778;7.912;2023-02-23T00:17:02;21.50;81.90
32600;DHT22;19277;51.778;7.912;2023-02-23T00:19:27;21.50;81.90
32600;DHT22;19277;51.778;7.912;2023-02-23T00:21:53;21.50;82.00
32600;DHT22;19277;51.778;7.912;2023-02-23T00:24:19;21.50;82.10
32600;DHT22;19277;51.778;7.912;2023-02-23T00:26:46;21.60;82.10
32600;DHT22;19277;51.778;7.912;2023-02-23T00:29:17;21.60;82.60
32600;DHT22;19277;51.778;7.912;2023-02-23T00:31:44;21.50;82.00
32600;DHT22;19277;51.778;7.912;2023-02-23T00:34:12;21.60;82.00
32600;DHT22;19277;51.778;7.912;2023-02-23T00:36:37;21.60;82.00
32600;DHT22;19277;51.778;7.912;2023-02-23T00:39:06;21.50;81.90
32600;DHT22;19277;51.778;7.912;2023-02-23T00:41:43;21.60;81.90
32600;DHT22;19277;51.778;7.912;2023-02-23T00:44:09;21.60;81.90
32600;DHT22;19277;51.778;7.912;2023-02-23T00:46:35;21.60;81.80
32600;DHT22;19277;51.778;7.912;2023-02-23T00:49:01;21.60;81.80
32600;DHT22;19277;51.778;7.912;2023-02-23T00:51:27;21.60;81.80
32600;DHT22;19277;51.778;7.912;2023-02-23T00:53:55;21.60;81.80
32600;DHT22;19277;51.778;7.912;2023-02-23T00:56:22;21.60;81.80
32600;DHT22;19277;51.778;7.912;2023-02-23T00:58:48;21.60;82.20
32600;DHT22;19277;51.778;7.912;2023-02-23T01:01:14;21.60;81.70
32600;DHT22;19277;51.778;7.912;2023-02-23T01:03:41;21.60;81.70
32600;DHT22;19277;51.778;7.912;2023-02-23T01:06:09;21.60;81.70
32600;DHT22;19277;51.778;7.912;2023-02-23T01:08:38;21.60;81.70
32600;DHT22;19277;51.778;7.912;2023-02-23T01:11:06;21.60;81.60
32600;DHT22;19277;51.778;7.912;2023-02-23T01:13:33;21.60;81.60
32600;DHT22;19277;51.778;7.912;2023-02-23T01:15:59;21.60;81.60
32600;DHT22;19277;51.778;7.912;2023-02-23T01:18:26;21.60;81.60
32600;DHT22;19277;51.778;7.912;2023-02-23T01:20:51;21.60;81.60
32600;DHT22;19277;51.778;7.912;2023-02-23T01:23:17;21.60;81.60
32600;DHT22;19277;51.778;7.912;2023-02-23T01:25:43;21.60;81.60
32600;DHT22;19277;51.778;7.912;2023-02-23T01:28:10;21.60;81.60
32600;DHT22;19277;51.778;7.912;2023-02-23T01:30:37;21.60;81.80
32600;DHT22;19277;51.778;7.912;2023-02-23T01:33:03;21.60;81.90
32600;DHT22;19277;51.778;7.912;2023-02-23T01:35:29;21.60;82.00
32600;DHT22;19277;51.778;7.912;2023-02-23T01:37:54;21.60;82.10
32600;DHT22;19277;51.778;7.912;2023-02-23T01:40:24;21.60;82.10
32600;DHT22;19277;51.778;7.912;2023-02-23T01:42:58;21.60;82.10
32600;DHT22;19277;51.778;7.912;2023-02-23T01:45:33;21.60;82.10
32600;DHT22;19277;51.778;7.912;2023-02-23T01:48:56;21.60;82.20
32600;DHT22;19277;51.778;7.912;2023-02-23T01:51:18;21.60;82.20
32600;DHT22;19277;51.778;7.912;2023-02-23T01:53:54;21.60;82.20
32600;DHT22;19277;51.778;7.912;2023-02-23T01:56:26;21.60;82.30
32600;DHT22;19277;51.778;7.912;2023-02-23T01:58:56;21.60;82.30
32600;DHT22;19277;51.778;7.912;2023-02-23T02:01:22;21.60;82.40
32600;DHT22;19277;51.778;7.912;2023-02-23T02:03:59;21.50;82.40
32600;DHT22;19277;51.778;7.912;2023-02-23T02:06:26;21.50;82.40
32600;DHT22;19277;51.778;7.912;2023-02-23T02:08:55;21.50;82.40
32600;DHT22;19277;51.778;7.912;2023-02-23T02:11:22;21.50;82.40
32600;DHT22;19277;51.778;7.912;2023-02-23T02:14:16;21.50;82.50
32600;DHT22;19277;51.778;7.912;2023-02-23T02:22:21;21.50;82.60
32600;DHT22;19277;51.778;7.912;2023-02-23T02:25:17;21.40;82.70
32600;DHT22;19277;51.778;7.912;2023-02-23T02:39:31;21.40;82.80
32600;DHT22;19277;51.778;7.912;2023-02-23T02:42:07;21.40;82.80
32600;DHT22;19277;51.778;7.912;2023-02-23T02:44:56;21.40;82.80
32600;DHT22;19277;51.778;7.912;2023-02-23T02:47:40;21.40;82.80
32600;DHT22;19277;51.778;7.912;2023-02-23T02:50:08;21.30;82.80
32600;DHT22;19277;51.778;7.912;2023-02-23T02:52:48;21.40;82.80
32600;DHT22;19277;51.778;7.912;2023-02-23T02:55:24;21.40;82.80
32600;DHT22;19277;51.778;7.912;2023-02-23T02:57:56;21.30;82.80
32600;DHT22;19277;51.778;7.912;2023-02-23T03:00:29;21.30;83.30
32600;DHT22;19277;51.778;7.912;2023-02-23T03:03:40;21.30;82.80
32600;DHT22;19277;51.778;7.912;2023-02-23T03:06:31;21.30;82.80
32600;DHT22;19277;51.778;7.912;2023-02-23T03:12:28;21.30;83.00
32600;DHT22;19277;51.778;7.912;2023-02-23T03:18:44;21.30;83.00
32600;DHT22;19277;51.778;7.912;2023-02-23T03:21:40;21.30;83.00
32600;DHT22;19277;51.778;7.912;2023-02-23T03:24:41;21.30;83.00
32600;DHT22;19277;51.778;7.912;2023-02-23T03:30:48;21.20;83.00
32600;DHT22;19277;51.778;7.912;2023-02-23T03:33:51;21.20;83.20
32600;DHT22;19277;51.778;7.912;2023-02-23T03:36:38;21.20;83.30
32600;DHT22;19277;51.778;7.912;2023-02-23T03:42:16;21.20;83.50
32600;DHT22;19277;51.778;7.912;2023-02-23T03:45:11;21.20;83.60
32600;DHT22;19277;51.778;7.912;2023-02-23T03:47:59;21.20;83.70
32600;DHT22;19277;51.778;7.912;2023-02-23T03:50:51;21.20;83.70
32600;DHT22;19277;51.778;7.912;2023-02-23T03:53:53;21.20;83.70
32600;DHT22;19277;51.778;7.912;2023-02-23T03:56:43;21.20;83.80
32600;DHT22;19277;51.778;7.912;2023-02-23T03:59:33;21.10;83.80
32600;DHT22;19277;51.778;7.912;2023-02-23T04:02:20;21.20;83.90
32600;DHT22;19277;51.778;7.912;2023-02-23T04:05:09;21.10;83.80
32600;DHT22;19277;51.778;7.912;2023-02-23T04:07:56;21.10;83.90
32600;DHT22;19277;51.778;7.912;2023-02-23T04:10:49;21.10;83.90
32600;DHT22;19277;51.778;7.912;2023-02-23T04:13:37;21.10;83.90
32600;DHT22;19277;51.778;7.912;2023-02-23T04:16:06;21.10;84.00
32600;DHT22;19277;51.778;7.912;2023-02-23T04:18:33;21.10;84.10
32600;DHT22;19277;51.778;7.912;2023-02-23T04:21:00;21.10;84.00
32600;DHT22;19277;51.778;7.912;2023-02-23T04:23:27;21.10;84.10
32600;DHT22;19277;51.778;7.912;2023-02-23T04:25:54;21.10;84.10
32600;DHT22;19277;51.778;7.912;2023-02-23T04:28:21;21.10;84.20
32600;DHT22;19277;51.778;7.912;2023-02-23T04:30:47;21.10;84.20
32600;DHT22;19277;51.778;7.912;2023-02-23T04:33:13;21.10;84.20
32600;DHT22;19277;51.778;7.912;2023-02-23T04:35:39;21.10;84.30
32600;DHT22;19277;51.778;7.912;2023-02-23T04:38:05;21.10;84.40
32600;DHT22;19277;51.778;7.912;2023-02-23T04:40:31;21.10;84.40
32600;DHT22;19277;51.778;7.912;2023-02-23T04:42:57;21.10;84.50
32600;DHT22;19277;51.778;7.912;2023-02-23T04:45:23;21.10;84.60
32600;DHT22;19277;51.778;7.912;2023-02-23T04:47:49;21.10;84.70
32600;DHT22;19277;51.778;7.912;2023-02-23T04:50:15;21.00;84.70
32600;DHT22;19277;51.778;7.912;2023-02-23T04:52:41;21.00;84.70
32600;DHT22;19277;51.778;7.912;2023-02-23T04:55:13;21.10;85.00
32600;DHT22;19277;51.778;7.912;2023-02-23T04:57:39;21.10;84.90
32600;DHT22;19277;51.778;7.912;2023-02-23T05:00:06;21.10;85.10
32600;DHT22;19277;51.778;7.912;2023-02-23T05:02:31;21.10;85.10
32600;DHT22;19277;51.778;7.912;2023-02-23T05:04:57;21.00;85.10
32600;DHT22;19277;51.778;7.912;2023-02-23T05:07:22;21.00;85.10
32600;DHT22;19277;51.778;7.912;2023-02-23T05:09:48;21.00;85.20
32600;DHT22;19277;51.778;7.912;2023-02-23T05:12:14;21.00;85.20
32600;DHT22;19277;51.778;7.912;2023-02-23T05:14:39;21.00;85.10
32600;DHT22;19277;51.778;7.912;2023-02-23T05:17:05;21.00;85.20
32600;DHT22;19277;51.778;7.912;2023-02-23T05:19:31;21.00;85.30
32600;DHT22;19277;51.778;7.912;2023-02-23T05:21:57;21.00;85.40
32600;DHT22;19277;51.778;7.912;2023-02-23T05:24:22;21.00;85.70
32600;DHT22;19277;51.778;7.912;2023-02-23T05:26:48;21.00;85.70
32600;DHT22;19277;51.778;7.912;2023-02-23T05:29:14;21.00;85.80
32600;DHT22;19277;51.778;7.912;2023-02-23T05:31:39;21.00;85.70
32600;DHT22;19277;51.778;7.912;2023-02-23T05:34:05;21.00;85.60
32600;DHT22;19277;51.778;7.912;2023-02-23T05:36:31;21.10;85.50
32600;DHT22;19277;51.778;7.912;2023-02-23T05:38:56;21.10;85.40
32600;DHT22;19277;51.778;7.912;2023-02-23T05:41:22;21.10;85.30
32600;DHT22;19277;51.778;7.912;2023-02-23T05:43:49;21.10;85.20
32600;DHT22;19277;51.778;7.912;2023-02-23T05:46:23;21.10;85.20
32600;DHT22;19277;51.778;7.912;2023-02-23T05:48:49;21.10;85.20
32600;DHT22;19277;51.778;7.912;2023-02-23T05:51:16;21.10;85.10
32600;DHT22;19277;51.778;7.912;2023-02-23T05:53:42;21.10;85.00
32600;DHT22;19277;51.778;7.912;2023-02-23T05:56:11;21.10;85.00
32600;DHT22;19277;51.778;7.912;2023-02-23T05:58:37;21.10;84.90
32600;DHT22;19277;51.778;7.912;2023-02-23T06:01:03;21.10;84.90
32600;DHT22;19277;51.778;7.912;2023-02-23T06:03:29;21.10;84.90
32600;DHT22;19277;51.778;7.912;2023-02-23T06:05:56;21.10;84.90
32600;DHT22;19277;51.778;7.912;2023-02-23T06:08:24;21.10;85.00
32600;DHT22;19277;51.778;7.912;2023-02-23T06:10:51;21.10;84.90
32600;DHT22;19277;51.778;7.912;2023-02-23T06:13:16;21.10;84.90
32600;DHT22;19277;51.778;7.912;2023-02-23T06:15:43;21.10;84.90
32600;DHT22;19277;51.778;7.912;2023-02-23T06:18:08;21.10;84.90
32600;DHT22;19277;51.778;7.912;2023-02-23T06:20:35;21.10;84.90
32600;DHT22;19277;51.778;7.912;2023-02-23T06:23:02;21.10;85.00
32600;DHT22;19277;51.778;7.912;2023-02-23T06:25:28;21.10;85.00
32600;DHT22;19277;51.778;7.912;2023-02-23T06:27:53;21.10;85.10
32600;DHT22;19277;51.778;7.912;2023-02-23T06:30:19;21.10;85.00
32600;DHT22;19277;51.778;7.912;2023-02-23T06:32:45;21.10;85.00
32600;DHT22;19277;51.778;7.912;2023-02-23T06:35:11;21.10;85.10
32600;DHT22;19277;51.778;7.912;2023-02-23T06:37:37;21.10;85.20
32600;DHT22;19277;51.778;7.912;2023-02-23T06:40:03;21.10;85.10
32600;DHT22;19277;51.778;7.912;2023-02-23T06:42:29;21.10;85.20
32600;DHT22;19277;51.778;7.912;2023-02-23T06:44:54;21.10;85.20
32600;DHT22;19277;51.778;7.912;2023-02-23T06:47:20;21.10;85.20
32600;DHT22;19277;51.778;7.912;2023-02-23T06:49:45;21.10;85.30
32600;DHT22;19277;51.778;7.912;2023-02-23T06:52:12;21.10;85.30
32600;DHT22;19277;51.778;7.912;2023-02-23T06:54:39;21.10;85.30
32600;DHT22;19277;51.778;7.912;2023-02-23T06:57:09;21.10;85.30
32600;DHT22;19277;51.778;7.912;2023-02-23T06:59:35;21.10;85.20
32600;DHT22;19277;51.778;7.912;2023-02-23T07:02:02;21.10;85.20
32600;DHT22;19277;51.778;7.912;2023-02-23T07:04:30;21.10;85.30
32600;DHT22;19277;51.778;7.912;2023-02-23T07:06:55;21.10;85.30
32600;DHT22;19277;51.778;7.912;2023-02-23T07:09:21;21.10;85.20
32600;DHT22;19277;51.778;7.912;2023-02-23T07:11:47;21.10;85.20
32600;DHT22;19277;51.778;7.912;2023-02-23T07:14:12;21.10;85.20
32600;DHT22;19277;51.778;7.912;2023-02-23T07:16:38;21.10;85.10
32600;DHT22;19277;51.778;7.912;2023-02-23T07:19:05;21.10;85.20
32600;DHT22;19277;51.778;7.912;2023-02-23T07:21:31;21.10;85.30
32600;DHT22;19277;51.778;7.912;2023-02-23T07:23:57;21.10;85.50
32600;DHT22;19277;51.778;7.912;2023-02-23T07:26:23;21.10;85.40
32600;DHT22;19277;51.778;7.912;2023-02-23T07:28:49;21.10;85.50
32600;DHT22;19277;51.778;7.912;2023-02-23T07:31:15;21.10;85.30
32600;DHT22;19277;51.778;7.912;2023-02-23T07:33:40;21.10;85.00
32600;DHT22;19277;51.778;7.912;2023-02-23T07:36:07;21.10;84.80
32600;DHT22;19277;51.778;7.912;2023-02-23T07:38:33;21.10;84.60
32600;DHT22;19277;51.778;7.912;2023-02-23T07:40:59;21.10;84.40
32600;DHT22;19277;51.778;7.912;2023-02-23T07:43:25;21.10;84.20
32600;DHT22;19277;51.778;7.912;2023-02-23T07:45:51;21.10;84.10
32600;DHT22;19277;51.778;7.912;2023-02-23T07:48:17;21.10;84.10
32600;DHT22;19277;51.778;7.912;2023-02-23T07:50:43;21.10;84.00
32600;DHT22;19277;51.778;7.912;2023-02-23T07:53:09;21.10;83.90
32600;DHT22;19277;51.778;7.912;2023-02-23T07:55:34;21.10;83.80
32600;DHT22;19277;51.778;7.912;2023-02-23T07:58:03;20.30;70.30
32600;DHT22;19277;51.778;7.912;2023-02-23T08:00:28;18.60;72.60
32600;DHT22;19277;51.778;7.912;2023-02-23T08:02:54;17.30;75.30
32600;DHT22;19277;51.778;7.912;2023-02-23T08:05:20;16.30;78.90
32600;DHT22;19277;51.778;7.912;2023-02-23T08:07:46;15.60;81.70
32600;DHT22;19277;51.778;7.912;2023-02-23T08:10:11;15.10;82.80
32600;DHT22;19277;51.778;7.912;2023-02-23T08:12:37;14.80;84.40
32600;DHT22;19277;51.778;7.912;2023-02-23T08:15:04;14.50;84.70
32600;DHT22;19277;51.778;7.912;2023-02-23T08:17:33;14.30;86.10
32600;DHT22;19277;51.778;7.912;2023-02-23T08:19:58;14.10;86.90
32600;DHT22;19277;51.778;7.912;2023-02-23T08:22:24;14.00;87.50
32600;DHT22;19277;51.778;7.912;2023-02-23T08:24:50;13.90;87.60
32600;DHT22;19277;51.778;7.912;2023-02-23T08:27:16;13.70;87.80
32600;DHT22;19277;51.778;7.912;2023-02-23T08:29:41;13.50;88.90
32600;DHT22;19277;51.778;7.912;2023-02-23T08:32:07;13.40;89.40
32600;DHT22;19277;51.778;7.912;2023-02-23T08:34:39;13.50;91.30
32600;DHT22;19277;51.778;7.912;2023-02-23T08:37:06;14.10;91.70
32600;DHT22;19277;51.778;7.912;2023-02-23T08:39:31;14.80;91.20
32600;DHT22;19277;51.778;7.912;2023-02-23T08:41:57;15.60;90.50
32600;DHT22;19277;51.778;7.912;2023-02-23T08:46:53;16.70;88.20
32600;DHT22;19277;51.778;7.912;2023-02-23T08:49:20;17.10;87.20
32600;DHT22;19277;51.778;7.912;2023-02-23T08:51:46;17.50;86.80
32600;DHT22;19277;51.778;7.912;2023-02-23T08:54:12;17.80;86.40
32600;DHT22;19277;51.778;7.912;2023-02-23T08:56:41;18.00;86.00
32600;DHT22;19277;51.778;7.912;2023-02-23T08:59:07;18.20;85.80
32600;DHT22;19277;51.778;7.912;2023-02-23T09:01:33;18.40;85.60
32600;DHT22;19277;51.778;7.912;2023-02-23T09:03:59;18.60;85.50
32600;DHT22;19277;51.778;7.912;2023-02-23T09:06:26;18.70;85.20
32600;DHT22;19277;51.778;7.912;2023-02-23T09:08:52;18.80;85.00
32600;DHT22;19277;51.778;7.912;2023-02-23T09:11:18;18.90;84.90
32600;DHT22;19277;51.778;7.912;2023-02-23T09:13:44;19.00;84.90
32600;DHT22;19277;51.778;7.912;2023-02-23T09:16:10;19.10;84.80
32600;DHT22;19277;51.778;7.912;2023-02-23T09:18:36;19.20;84.80
32600;DHT22;19277;51.778;7.912;2023-02-23T09:21:06;19.30;84.70
32600;DHT22;19277;51.778;7.912;2023-02-23T09:23:36;19.30;84.50
32600;DHT22;19277;51.778;7.912;2023-02-23T09:26:07;19.40;84.50
32600;DHT22;19277;51.778;7.912;2023-02-23T09:28:33;19.40;84.40
32600;DHT22;19277;51.778;7.912;2023-02-23T09:31:10;19.50;84.30
32600;DHT22;19277;51.778;7.912;2023-02-23T09:33:36;19.60;84.40
32600;DHT22;19277;51.778;7.912;2023-02-23T09:36:18;19.60;84.30
32600;DHT22;19277;51.778;7.912;2023-02-23T09:38:45;19.70;84.40
32600;DHT22;19277;51.778;7.912;2023-02-23T09:49:40;19.80;84.30
32600;DHT22;19277;51.778;7.912;2023-02-23T09:52:14;19.90;84.30
32600;DHT22;19277;51.778;7.912;2023-02-23T09:54:40;19.90;84.30
32600;DHT22;19277;51.778;7.912;2023-02-23T09:57:13;19.90;84.10
32600;DHT22;19277;51.778;7.912;2023-02-23T09:59:39;20.00;84.10
32600;DHT22;19277;51.778;7.912;2023-02-23T10:07:17;20.00;83.60
32600;DHT22;19277;51.778;7.912;2023-02-23T10:09:52;20.10;83.50
32600;DHT22;19277;51.778;7.912;2023-02-23T10:12:53;20.10;83.30
32600;DHT22;19277;51.778;7.912;2023-02-23T10:15:36;20.10;83.20
32600;DHT22;19277;51.778;7.912;2023-02-23T10:21:02;20.10;82.90
32600;DHT22;19277;51.778;7.912;2023-02-23T10:23:50;20.10;82.80
32600;DHT22;19277;51.778;7.912;2023-02-23T10:26:21;20.10;82.70
32600;DHT22;19277;51.778;7.912;2023-02-23T10:28:48;20.10;82.60
32600;DHT22;19277;51.778;7.912;2023-02-23T10:31:41;20.10;82.50
32600;DHT22;19277;51.778;7.912;2023-02-23T10:34:16;20.10;82.40
32600;DHT22;19277;51.778;7.912;2023-02-23T10:36:51;20.10;82.30
32600;DHT22;19277;51.778;7.912;2023-02-23T10:39:18;20.20;82.20
32600;DHT22;19277;51.778;7.912;2023-02-23T10:41:43;20.20;82.00
32600;DHT22;19277;51.778;7.912;2023-02-23T10:44:17;20.20;81.90
32600;DHT22;19277;51.778;7.912;2023-02-23T10:46:45;20.20;81.90
32600;DHT22;19277;51.778;7.912;2023-02-23T10:49:18;20.30;81.80
32600;DHT22;19277;51.778;7.912;2023-02-23T10:51:47;20.30;81.70
32600;DHT22;19277;51.778;7.912;2023-02-23T10:54:42;20.30;81.60
32600;DHT22;19277;51.778;7.912;2023-02-23T10:57:11;20.30;81.50
32600;DHT22;19277;51.778;7.912;2023-02-23T10:59:41;20.30;81.40
32600;DHT22;19277;51.778;7.912;2023-02-23T11:02:23;20.30;81.30
32600;DHT22;19277;51.778;7.912;2023-02-23T11:04:53;20.40;81.30
32600;DHT22;19277;51.778;7.912;2023-02-23T11:07:31;20.40;81.00
32600;DHT22;19277;51.778;7.912;2023-02-23T11:09:59;20.50;81.00
32600;DHT22;19277;51.778;7.912;2023-02-23T11:12:43;20.50;80.80
32600;DHT22;19277;51.778;7.912;2023-02-23T11:15:28;20.50;80.60
32600;DHT22;19277;51.778;7.912;2023-02-23T11:17:54;20.50;80.50
32600;DHT22;19277;51.778;7.912;2023-02-23T11:20:28;20.50;80.60
32600;DHT22;19277;51.778;7.912;2023-02-23T11:22:54;20.40;80.60
32600;DHT22;19277;51.778;7.912;2023-02-23T11:25:29;20.40;80.70
32600;DHT22;19277;51.778;7.912;2023-02-23T11:27:56;20.30;80.70
32600;DHT22;19277;51.778;7.912;2023-02-23T11:30:24;20.40;80.70
32600;DHT22;19277;51.778;7.912;2023-02-23T11:32:56;20.40;80.70
32600;DHT22;19277;51.778;7.912;2023-02-23T11:37:48;20.40;80.80
32600;DHT22;19277;51.778;7.912;2023-02-23T11:40:23;20.40;81.10
32600;DHT22;19277;51.778;7.912;2023-02-23T11:43:13;20.40;81.50
32600;DHT22;19277;51.778;7.912;2023-02-23T11:45:53;20.40;81.70
32600;DHT22;19277;51.778;7.912;2023-02-23T11:50:52;20.40;81.90
32600;DHT22;19277;51.778;7.912;2023-02-23T11:53:31;20.40;81.90
32600;DHT22;19277;51.778;7.912;2023-02-23T11:56:01;20.50;82.00
32600;DHT22;19277;51.778;7.912;2023-02-23T11:58:39;20.40;82.00
32600;DHT22;19277;51.778;7.912;2023-02-23T12:01:09;20.50;82.20
32600;DHT22;19277;51.778;7.912;2023-02-23T12:06:12;20.40;82.20
32600;DHT22;19277;51.778;7.912;2023-02-23T12:08:52;20.50;82.30
32600;DHT22;19277;51.778;7.912;2023-02-23T12:11:24;20.50;82.30
32600;DHT22;19277;51.778;7.912;2023-02-23T12:17:01;20.50;82.70
32600;DHT22;19277;51.778;7.912;2023-02-23T12:20:33;20.50;82.80
32600;DHT22;19277;51.778;7.912;2023-02-23T12:22:34;20.50;82.90
32600;DHT22;19277;51.778;7.912;2023-02-23T12:25:10;20.60;83.00
32600;DHT22;19277;51.778;7.912;2023-02-23T12:27:44;19.60;73.10
32600;DHT22;19277;51.778;7.912;2023-02-23T12:33:16;17.30;73.60
32600;DHT22;19277;51.778;7.912;2023-02-23T12:38:56;15.40;79.50
32600;DHT22;19277;51.778;7.912;2023-02-23T12:41:38;14.90;81.60
32600;DHT22;19277;51.778;7.912;2023-02-23T12:44:29;14.60;82.40
32600;DHT22;19277;51.778;7.912;2023-02-23T12:46:59;14.40;83.80
32600;DHT22;19277;51.778;7.912;2023-02-23T12:52:06;14.20;85.60
32600;DHT22;19277;51.778;7.912;2023-02-23T12:54:35;14.00;85.30
32600;DHT22;19277;51.778;7.912;2023-02-23T13:03:12;13.90;86.80
32600;DHT22;19277;51.778;7.912;2023-02-23T13:06:10;14.10;89.20
32600;DHT22;19277;51.778;7.912;2023-02-23T13:09:02;14.80;89.10
32600;DHT22;19277;51.778;7.912;2023-02-23T13:19:57;17.30;84.40
32600;DHT22;19277;51.778;7.912;2023-02-23T13:22:36;17.60;83.80
32600;DHT22;19277;51.778;7.912;2023-02-23T13:25:36;17.90;83.30
32600;DHT22;19277;51.778;7.912;2023-02-23T13:28:05;18.10;82.90
32600;DHT22;19277;51.778;7.912;2023-02-23T13:30:38;18.40;82.60
32600;DHT22;19277;51.778;7.912;2023-02-23T13:33:24;18.50;82.40
32600;DHT22;19277;51.778;7.912;2023-02-23T13:35:50;18.70;82.30
32600;DHT22;19277;51.778;7.912;2023-02-23T13:38:55;18.80;82.10
32600;DHT22;19277;51.778;7.912;2023-02-23T13:41:21;18.90;82.00
32600;DHT22;19277;51.778;7.912;2023-02-23T13:46:56;19.10;81.90
32600;DHT22;19277;51.778;7.912;2023-02-23T13:49:40;19.10;81.80
32600;DHT22;19277;51.778;7.912;2023-02-23T13:52:37;19.20;81.80
32600;DHT22;19277;51.778;7.912;2023-02-23T13:57:53;19.30;81.70
32600;DHT22;19277;51.778;7.912;2023-02-23T14:00:22;19.40;81.80
32600;DHT22;19277;51.778;7.912;2023-02-23T14:02:49;19.40;81.80
32600;DHT22;19277;51.778;7.912;2023-02-23T14:05:18;19.50;81.80
32600;DHT22;19277;51.778;7.912;2023-02-23T14:07:50;19.50;81.80
32600;DHT22;19277;51.778;7.912;2023-02-23T14:10:24;19.60;81.90
32600;DHT22;19277;51.778;7.912;2023-02-23T14:15:46;19.60;81.80
32600;DHT22;19277;51.778;7.912;2023-02-23T14:28:33;19.70;81.80
32600;DHT22;19277;51.778;7.912;2023-02-23T14:31:17;19.80;81.80
32600;DHT22;19277;51.778;7.912;2023-02-23T14:38:57;19.80;81.80
32600;DHT22;19277;51.778;7.912;2023-02-23T14:41:38;19.90;81.80
32600;DHT22;19277;51.778;7.912;2023-02-23T14:44:37;19.90;81.80
32600;DHT22;19277;51.778;7.912;2023-02-23T14:47:11;19.90;81.80
32600;DHT22;19277;51.778;7.912;2023-02-23T14:49:46;19.90;81.70
32600;DHT22;19277;51.778;7.912;2023-02-23T14:54:51;19.90;81.90
32600;DHT22;19277;51.778;7.912;2023-02-23T14:57:22;19.90;81.80
32600;DHT22;19277;51.778;7.912;2023-02-23T15:00:00;19.90;81.90
32600;DHT22;19277;51.778;7.912;2023-02-23T15:02:28;20.00;81.90
32600;DHT22;19277;51.778;7.912;2023-02-23T15:04:55;19.90;81.90
32600;DHT22;19277;51.778;7.912;2023-02-23T15:09:54;20.00;82.00
32600;DHT22;19277;51.778;7.912;2023-02-23T15:12:27;20.00;82.00
32600;DHT22;19277;51.778;7.912;2023-02-23T15:15:00;20.00;82.10
32600;DHT22;19277;51.778;7.912;2023-02-23T15:17:28;20.00;82.10
32600;DHT22;19277;51.778;7.912;2023-02-23T15:20:06;20.00;82.40
32600;DHT22;19277;51.778;7.912;2023-02-23T15:22:36;20.10;82.20
32600;DHT22;19277;51.778;7.912;2023-02-23T15:25:13;20.10;82.20
32600;DHT22;19277;51.778;7.912;2023-02-23T15:27:40;20.10;82.10
32600;DHT22;19277;51.778;7.912;2023-02-23T15:32:42;20.20;82.00
32600;DHT22;19277;51.778;7.912;2023-02-23T15:35:10;20.20;82.00
32600;DHT22;19277;51.778;7.912;2023-02-23T15:37:40;20.30;82.10
32600;DHT22;19277;51.778;7.912;2023-02-23T15:40:26;20.30;82.10
32600;DHT22;19277;51.778;7.912;2023-02-23T15:42:56;20.30;82.00
32600;DHT22;19277;51.778;7.912;2023-02-23T15:45:48;20.30;82.00
32600;DHT22;19277;51.778;7.912;2023-02-23T15:48:22;20.30;82.50
32600;DHT22;19277;51.778;7.912;2023-02-23T15:50:51;20.30;82.00
32600;DHT22;19277;51.778;7.912;2023-02-23T15:53:39;20.40;82.10
32600;DHT22;19277;51.778;7.912;2023-02-23T15:56:27;20.40;82.10
32600;DHT22;19277;51.778;7.912;2023-02-23T15:59:04;20.40;82.10
32600;DHT22;19277;51.778;7.912;2023-02-23T16:01:30;20.50;82.10
32600;DHT22;19277;51.778;7.912;2023-02-23T16:04:16;20.50;82.10
32600;DHT22;19277;51.778;7.912;2023-02-23T16:06:53;20.50;82.20
32600;DHT22;19277;51.778;7.912;2023-02-23T16:12:01;20.50;82.20
32600;DHT22;19277;51.778;7.912;2023-02-23T16:14:41;20.60;82.20
32600;DHT22;19277;51.778;7.912;2023-02-23T16:17:33;20.60;82.20
32600;DHT22;19277;51.778;7.912;2023-02-23T16:22:36;20.60;82.20
32600;DHT22;19277;51.778;7.912;2023-02-23T16:25:09;20.60;82.20
32600;DHT22;19277;51.778;7.912;2023-02-23T16:27:36;20.60;82.20
32600;DHT22;19277;51.778;7.912;2023-02-23T16:30:27;20.60;82.20
32600;DHT22;19277;51.778;7.912;2023-02-23T16:33:22;20.70;82.30
32600;DHT22;19277;51.778;7.912;2023-02-23T16:35:51;20.70;82.30
32600;DHT22;19277;51.778;7.912;2023-02-23T16:38:32;20.70;82.30
32600;DHT22;19277;51.778;7.912;2023-02-23T16:40:58;20.70;82.30
32600;DHT22;19277;51.778;7.912;2023-02-23T16:43:23;20.70;82.30
32600;DHT22;19277;51.778;7.912;2023-02-23T16:45:49;20.70;82.30
32600;DHT22;19277;51.778;7.912;2023-02-23T16:48:16;20.70;82.30
32600;DHT22;19277;51.778;7.912;2023-02-23T16:50:42;20.70;82.30
32600;DHT22;19277;51.778;7.912;2023-02-23T16:53:12;20.70;82.30
32600;DHT22;19277;51.778;7.912;2023-02-23T16:55:41;20.70;82.30
32600;DHT22;19277;51.778;7.912;2023-02-23T16:58:15;20.70;82.30
32600;DHT22;19277;51.778;7.912;2023-02-23T17:00:42;20.70;82.30
32600;DHT22;19277;51.778;7.912;2023-02-23T17:03:21;20.80;82.30
32600;DHT22;19277;51.778;7.912;2023-02-23T17:05:47;20.70;82.30
32600;DHT22;19277;51.778;7.912;2023-02-23T17:08:13;20.70;82.30
32600;DHT22;19277;51.778;7.912;2023-02-23T17:10:39;20.70;82.30
32600;DHT22;19277;51.778;7.912;2023-02-23T17:13:12;20.70;82.40
32600;DHT22;19277;51.778;7.912;2023-02-23T17:15:41;20.70;82.40
32600;DHT22;19277;51.778;7.912;2023-02-23T17:18:12;20.80;82.30
32600;DHT22;19277;51.778;7.912;2023-02-23T17:20:38;20.70;82.10
32600;DHT22;19277;51.778;7.912;2023-02-23T17:23:04;20.70;82.10
32600;DHT22;19277;51.778;7.912;2023-02-23T17:25:31;20.70;81.90
32600;DHT22;19277;51.778;7.912;2023-02-23T17:27:58;20.70;81.90
32600;DHT22;19277;51.778;7.912;2023-02-23T17:30:24;20.70;81.80
32600;DHT22;19277;51.778;7.912;2023-02-23T17:32:51;20.70;81.80
32600;DHT22;19277;51.778;7.912;2023-02-23T17:35:17;20.70;81.80
32600;DHT22;19277;51.778;7.912;2023-02-23T17:37:43;20.70;81.70
32600;DHT22;19277;51.778;7.912;2023-02-23T17:40:13;20.70;81.70
32600;DHT22;19277;51.778;7.912;2023-02-23T17:42:39;20.70;81.70
32600;DHT22;19277;51.778;7.912;2023-02-23T17:45:05;20.70;81.70
32600;DHT22;19277;51.778;7.912;2023-02-23T17:47:32;20.70;81.70
32600;DHT22;19277;51.778;7.912;2023-02-23T17:49:59;20.70;81.60
32600;DHT22;19277;51.778;7.912;2023-02-23T17:52:26;20.70;81.60
32600;DHT22;19277;51.778;7.912;2023-02-23T17:54:53;20.70;81.60
32600;DHT22;19277;51.778;7.912;2023-02-23T17:57:20;20.70;81.60
32600;DHT22;19277;51.778;7.912;2023-02-23T17:59:46;20.70;81.50